イスラマバード の空港の天気 - METARとTAF

イスラマバード国際空港 ( OPRN / ISB ) - パキスタン Islamabad
飛行場実況気象(Metar)
観測時間02/28 05:00 PKT (02/28 00:00 UTC)
風向・風速静穏 0m/s
視程4000m
天気現象煙霧
少しの雲 雲底高度 1220m
全天の4割程度の雲 雲底高度 3050m
気温14℃
湿度63%
気圧-
METAROPRN 280000Z 00000KT 4000 HZ FEW040 SCT100 14/07 Q1017.4/30.04
過去の天気等 Google飛行場航空写真 Wunderground天気予報

過去48時間のMETAR

飛行場予報(TAF)
発表時間: 2/27 20:30 PKT (2/27 15:30 UTC)
予報対象時間: 27日23時 PKT ~ 1日5時 PKT
風向・風速南西 3m/s
視程3,000m
天気現象煙霧
少しの雲 雲底高度 1,220m
全天の8割程度の雲 雲底高度 3,050m
28日7時 PKT ~ 28日8時 PKT に徐々に
風向・風速静穏
視程2,000m
天気現象煙霧
全天の4割程度の雲 雲底高度 1,220m
全天の8割程度の雲 雲底高度 3,050m
28日14時 PKT ~ 28日18時 PKT に一時的に
風向・風速西北西 5m/s 瞬間風速 10m/s
視程3,000m
天気現象弱い雨
少しの塔状積雲 雲底高度 910m
全天の8割程度の雲 雲底高度 3,050m
TAF OPRN 271530Z 2718/2824 23006KT 3000 HZ FEW040 BKN100
BECMG 2802/2803 00000KT 2000 HZ SCT040 BKN100
TEMPO 2809/2813 29010G20KT 3000 -RA FEW030TCU BKN100